createdAt,value
2019-02-22T00:02:35.088Z,62.79
2019-02-22T00:07:39.456Z,62.70
2019-02-22T00:12:43.731Z,62.70
2019-02-22T00:17:48.028Z,62.75
2019-02-22T00:22:52.307Z,62.79
2019-02-22T00:27:56.627Z,62.67
2019-02-22T00:33:00.784Z,63.37
2019-02-22T00:38:05.071Z,63.30
2019-02-22T00:43:09.362Z,62.68
2019-02-22T00:48:13.647Z,63.24
2019-02-22T00:53:17.875Z,63.12
2019-02-22T00:58:22.074Z,62.88
2019-02-22T01:03:26.157Z,62.88
2019-02-22T01:08:30.284Z,63.08
2019-02-22T01:13:34.461Z,62.96
2019-02-22T01:18:38.591Z,63.06
2019-02-22T01:23:42.739Z,62.33
2019-02-22T01:28:46.871Z,62.33
2019-02-22T01:33:50.991Z,63.00
2019-02-22T01:38:55.138Z,62.81
2019-02-22T01:43:59.207Z,62.81
2019-02-22T01:49:03.393Z,63.65
2019-02-22T01:54:07.419Z,63.65
2019-02-22T01:59:11.550Z,63.47
2019-02-22T02:04:15.696Z,63.82
2019-02-22T02:09:19.955Z,64.03
2019-02-22T02:14:23.975Z,63.63
2019-02-22T02:19:27.998Z,64.07
2019-02-22T02:24:32.187Z,64.17
2019-02-22T02:29:36.319Z,64.07
2019-02-22T02:34:40.358Z,64.46
2019-02-22T02:39:44.465Z,64.46
2019-02-22T02:44:48.640Z,64.83
2019-02-22T02:49:52.695Z,64.89
2019-02-22T02:54:56.759Z,65.31
2019-02-22T03:00:00.823Z,65.29
2019-02-22T03:05:05.188Z,65.29
2019-02-22T03:10:09.455Z,65.51
2019-02-22T03:15:14.408Z,65.16
2019-02-22T03:20:18.534Z,65.26
2019-02-22T03:25:22.561Z,65.34
2019-02-22T03:30:26.598Z,65.45
2019-02-22T03:35:30.827Z,65.46
2019-02-22T03:40:35.127Z,65.46
2019-02-22T03:45:39.339Z,65.54
2019-02-22T03:50:43.483Z,65.16
2019-02-22T03:55:47.706Z,66.19
2019-02-22T04:00:51.976Z,65.69
2019-02-22T04:05:56.154Z,65.69
2019-02-22T04:11:00.383Z,65.87
2019-02-22T04:16:04.553Z,65.87
2019-02-22T04:21:08.750Z,66.17
2019-02-22T04:26:12.877Z,66.15
2019-02-22T04:31:17.048Z,65.73
2019-02-22T04:36:21.236Z,66.26
2019-02-22T04:41:25.475Z,66.26
2019-02-22T04:46:29.769Z,65.72
2019-02-22T04:51:33.878Z,65.69
2019-02-22T04:56:38.042Z,65.35
2019-02-22T05:01:42.136Z,65.78
2019-02-22T05:06:46.270Z,66.16
2019-02-22T05:11:50.450Z,65.59
2019-02-22T05:16:54.547Z,65.59
2019-02-22T05:21:58.594Z,65.77
2019-02-22T05:27:02.879Z,65.98
2019-02-22T05:32:07.020Z,66.11
2019-02-22T05:37:11.191Z,65.28
2019-02-22T05:42:22.813Z,65.83
2019-02-22T05:47:21.111Z,65.83
2019-02-22T05:52:25.280Z,65.83
2019-02-22T05:57:29.349Z,66.08
2019-02-22T06:02:38.175Z,66.08
2019-02-22T06:07:42.301Z,66.37
2019-02-22T06:12:46.304Z,66.47
2019-02-22T06:17:50.512Z,66.47
2019-02-22T06:22:54.542Z,66.81
2019-02-22T06:27:58.577Z,66.31
2019-02-22T06:33:02.637Z,66.55
2019-02-22T06:38:06.712Z,66.95
2019-02-22T06:43:10.739Z,66.95
2019-02-22T06:48:14.767Z,66.94
2019-02-22T06:53:18.852Z,67.01
2019-02-22T06:58:22.978Z,67.25
2019-02-22T07:03:26.997Z,66.97
2019-02-22T07:08:31.008Z,67.55
2019-02-22T07:13:35.229Z,67.43
2019-02-22T07:18:39.242Z,67.43
2019-02-22T07:23:43.361Z,67.48
2019-02-22T07:28:47.467Z,67.64
2019-02-22T07:33:51.559Z,67.76
2019-02-22T07:38:55.801Z,67.76
2019-02-22T07:43:59.836Z,67.74
2019-02-22T07:49:03.865Z,67.87
2019-02-22T07:54:07.914Z,61.24
2019-02-22T07:59:11.938Z,60.82
2019-02-22T08:04:15.964Z,60.54
2019-02-22T08:09:19.974Z,59.14
2019-02-22T08:14:24.129Z,58.80
2019-02-22T08:19:28.142Z,58.80
2019-02-22T08:24:32.157Z,59.76
2019-02-22T08:29:38.217Z,59.94
2019-02-22T08:34:41.941Z,59.94
2019-02-22T08:45:03.222Z,60.09
2019-02-22T08:50:07.420Z,60.72
2019-02-22T08:55:11.449Z,58.25
2019-02-22T09:00:15.686Z,59.11
2019-02-22T09:05:19.779Z,60.33
2019-02-22T09:10:23.806Z,60.33
2019-02-22T09:15:27.914Z,60.47
2019-02-22T09:20:31.932Z,60.46
2019-02-22T09:25:35.964Z,61.39
2019-02-22T09:30:39.985Z,61.67
2019-02-22T09:35:44.025Z,61.62
2019-02-22T09:40:48.324Z,62.19
2019-02-22T09:45:52.379Z,62.19
2019-02-22T09:50:56.385Z,62.63
2019-02-22T09:56:00.490Z,62.83
2019-02-22T10:01:04.551Z,62.73
2019-02-22T10:06:11.027Z,62.27
2019-02-22T10:11:15.091Z,62.59
2019-02-22T10:16:19.121Z,62.46
2019-02-22T10:21:23.165Z,62.58
2019-02-22T10:26:27.269Z,62.58
2019-02-22T10:31:31.296Z,63.04
2019-02-22T10:36:44.664Z,63.25
2019-02-22T10:41:41.164Z,63.36
2019-02-22T10:46:45.198Z,63.86
2019-02-22T10:51:49.258Z,63.95
2019-02-22T10:56:53.276Z,64.28
2019-02-22T11:01:57.320Z,64.28
2019-02-22T11:07:01.414Z,65.13
2019-02-22T11:12:05.531Z,65.00
2019-02-22T11:17:09.649Z,65.23
2019-02-22T11:22:13.665Z,65.37
2019-02-22T11:27:17.690Z,66.17
2019-02-22T11:32:21.723Z,66.17
2019-02-22T11:37:25.764Z,66.87
2019-02-22T11:42:29.812Z,67.89
2019-02-22T11:47:33.908Z,67.51
2019-02-22T11:52:37.949Z,67.38
2019-02-22T11:57:42.131Z,66.94
2019-02-22T12:02:46.633Z,67.10
2019-02-22T12:07:50.877Z,67.10
2019-02-22T12:12:55.014Z,66.90
2019-02-22T12:17:59.095Z,66.90
2019-02-22T12:23:03.287Z,66.90
2019-02-22T12:28:07.403Z,66.92
2019-02-22T12:33:11.537Z,66.48
2019-02-22T12:38:15.613Z,66.82
2019-02-22T12:43:19.783Z,66.82
2019-02-22T12:48:23.824Z,66.49
2019-02-22T12:53:28.006Z,66.39
2019-02-22T12:58:32.082Z,66.39
2019-02-22T13:03:36.293Z,66.26
2019-02-22T13:08:40.370Z,66.48
2019-02-22T13:13:44.464Z,66.48
2019-02-22T13:18:48.520Z,66.07
2019-02-22T13:23:52.711Z,66.22
2019-02-22T13:28:56.735Z,66.22
2019-02-22T13:34:00.899Z,65.94
2019-02-22T13:39:06.066Z,66.07
2019-02-22T13:44:10.308Z,66.07
2019-02-22T13:49:14.407Z,66.34
2019-02-22T13:54:18.562Z,66.34
2019-02-22T13:59:22.663Z,66.18
2019-02-22T14:04:26.798Z,65.82
2019-02-22T14:09:30.834Z,65.93
2019-02-22T14:14:34.908Z,66.30
2019-02-22T14:19:38.970Z,66.30
2019-02-22T14:24:43.105Z,66.38
2019-02-22T14:29:47.137Z,65.96
2019-02-22T14:34:51.249Z,65.96
2019-02-22T14:40:02.981Z,65.78
2019-02-22T14:45:01.995Z,65.69
2019-02-22T14:50:09.667Z,65.69
2019-02-22T14:55:13.986Z,66.16
2019-02-22T15:00:18.307Z,66.14
2019-02-22T15:05:22.478Z,66.25
2019-02-22T15:10:26.531Z,66.25
2019-02-22T15:15:43.472Z,65.65
2019-02-22T15:20:49.818Z,65.65
2019-02-22T15:25:53.942Z,65.69
2019-02-22T15:30:58.096Z,65.16
2019-02-22T15:36:02.117Z,64.96
2019-02-22T15:41:06.303Z,64.73
2019-02-22T15:46:12.458Z,64.39
2019-02-22T15:51:16.100Z,64.39
2019-02-22T15:56:20.217Z,64.03
2019-02-22T16:01:24.317Z,63.83
2019-02-22T16:06:28.515Z,63.80
2019-02-22T16:11:32.707Z,64.13
2019-02-22T16:16:36.838Z,64.08
2019-02-22T16:21:40.873Z,63.70
2019-02-22T16:26:44.921Z,63.84
2019-02-22T16:31:49.122Z,63.21
2019-02-22T16:36:53.162Z,63.21
2019-02-22T16:41:57.214Z,63.37
2019-02-22T16:47:01.423Z,63.10
2019-02-22T16:52:05.619Z,62.89
2019-02-22T16:57:09.832Z,63.42
2019-02-22T17:02:14.025Z,63.11
2019-02-22T17:07:18.142Z,63.11
2019-02-22T17:12:22.247Z,59.40
2019-02-22T17:17:26.364Z,58.09
2019-02-22T17:22:30.568Z,58.09
2019-02-22T17:27:34.833Z,56.52
2019-02-22T17:32:38.972Z,56.66
2019-02-22T17:37:42.997Z,57.93
2019-02-22T17:42:47.101Z,58.10
2019-02-22T17:47:51.362Z,58.10
2019-02-22T17:52:55.479Z,58.74
2019-02-22T17:57:59.592Z,58.88
2019-02-22T18:03:03.744Z,58.88
2019-02-22T18:08:07.788Z,58.76
2019-02-22T18:13:11.915Z,58.20
2019-02-22T18:18:16.043Z,58.15
2019-02-22T18:23:20.369Z,58.45
2019-02-22T18:28:25.130Z,59.06
2019-02-22T18:33:29.158Z,59.06
2019-02-22T18:38:33.283Z,59.71
2019-02-22T18:43:37.394Z,59.71
2019-02-22T18:48:41.523Z,59.66
2019-02-22T18:53:45.571Z,59.66
2019-02-22T18:58:49.607Z,58.68
2019-02-22T19:03:53.687Z,58.65
2019-02-22T19:08:57.744Z,58.65
2019-02-22T19:14:01.816Z,59.15
2019-02-22T19:19:05.939Z,59.21
2019-02-22T19:24:10.125Z,59.54
2019-02-22T19:29:14.191Z,59.73
2019-02-22T19:34:18.353Z,59.58
2019-02-22T19:39:22.483Z,60.10
2019-02-22T19:44:26.570Z,60.09
2019-02-22T19:49:30.703Z,60.09
2019-02-22T19:54:34.894Z,58.89
2019-02-22T19:59:38.958Z,58.61
2019-02-22T20:04:43.076Z,59.07
2019-02-22T20:09:47.137Z,59.66
2019-02-22T20:14:51.245Z,60.07
2019-02-22T20:19:55.332Z,60.23
2019-02-22T20:24:59.445Z,60.23
2019-02-22T20:30:03.937Z,60.07
2019-02-22T20:35:10.241Z,61.22
2019-02-22T20:40:14.433Z,60.89
2019-02-22T20:45:18.497Z,61.61
2019-02-22T20:50:22.639Z,61.29
2019-02-22T20:55:26.839Z,61.85
2019-02-22T21:00:31.067Z,62.05
2019-02-22T21:05:35.151Z,62.06
2019-02-22T21:10:39.243Z,61.64
2019-02-22T21:15:43.370Z,61.97
2019-02-22T21:20:47.510Z,62.03
2019-02-22T21:25:51.634Z,62.12
2019-02-22T21:30:55.799Z,62.41
2019-02-22T21:35:59.906Z,62.51
2019-02-22T21:41:04.169Z,62.83
2019-02-22T21:46:08.239Z,62.82
2019-02-22T21:51:12.291Z,62.91
2019-02-22T21:56:16.475Z,62.37
2019-02-22T22:01:20.528Z,62.37
2019-02-22T22:06:24.764Z,62.89
2019-02-22T22:11:28.932Z,62.68
2019-02-22T22:16:33.034Z,62.74
2019-02-22T22:21:37.419Z,62.66
2019-02-22T22:26:41.497Z,63.10
2019-02-22T22:31:45.522Z,62.67
2019-02-22T22:36:49.562Z,63.18
2019-02-22T22:41:53.760Z,63.18
2019-02-22T22:46:57.821Z,62.99
2019-02-22T22:52:03.938Z,63.37
2019-02-22T22:57:08.216Z,63.23
2019-02-22T23:02:12.667Z,63.23
2019-02-22T23:07:16.782Z,63.10
2019-02-22T23:12:20.808Z,63.16
2019-02-22T23:17:24.886Z,63.84
2019-02-22T23:22:28.959Z,63.57
2019-02-22T23:27:33.688Z,64.10
2019-02-22T23:32:37.737Z,64.10
2019-02-22T23:37:41.882Z,64.09
2019-02-22T23:42:46.000Z,64.09
2019-02-22T23:47:50.048Z,64.40
2019-02-22T23:52:54.173Z,64.40
2019-02-22T23:57:58.209Z,64.39
